createdAt,value
2019-04-27T00:01:33.524Z,10.10
2019-04-27T00:02:33.347Z,10.13
2019-04-27T00:04:25.383Z,10.16
2019-04-27T00:05:32.038Z,10.12
2019-04-27T00:07:21.133Z,10.07
2019-04-27T00:08:17.863Z,10.07
2019-04-27T00:10:10.857Z,10.04
2019-04-27T00:11:10.892Z,9.99
2019-04-27T00:13:05.673Z,9.95
2019-04-27T00:14:03.929Z,10.05
2019-04-27T00:15:56.934Z,9.97
2019-04-27T00:16:56.968Z,10.07
2019-04-27T00:18:56.434Z,9.99
2019-04-27T00:19:50.007Z,9.98
2019-04-27T00:21:43.110Z,10.10
2019-04-27T00:22:43.586Z,10.09
2019-04-27T00:24:36.045Z,10.15
2019-04-27T00:25:36.086Z,10.13
2019-04-27T00:27:29.065Z,10.22
2019-04-27T00:28:29.123Z,10.19
2019-04-27T00:30:23.452Z,10.34
2019-04-27T00:31:23.433Z,10.34
2019-04-27T00:33:15.146Z,10.37
2019-04-27T00:34:15.215Z,10.44
2019-04-27T00:36:08.211Z,10.42
2019-04-27T00:37:08.239Z,10.54
2019-04-27T00:39:01.221Z,10.53
2019-04-27T00:40:01.278Z,10.54
2019-04-27T00:41:54.275Z,10.38
2019-04-27T00:42:54.316Z,10.46
2019-04-27T00:44:47.321Z,10.48
2019-04-27T00:45:47.360Z,10.35
2019-04-27T00:47:53.779Z,10.38
2019-04-27T00:48:40.905Z,10.41
2019-04-27T00:50:33.925Z,10.33
2019-04-27T00:51:33.950Z,10.23
2019-04-27T00:53:26.930Z,10.30
2019-04-27T00:54:26.995Z,10.15
2019-04-27T00:56:20.004Z,10.12
2019-04-27T00:57:20.039Z,10.12
2019-04-27T00:59:13.754Z,9.99
2019-04-27T01:00:13.510Z,9.97
2019-04-27T01:02:06.078Z,9.97
2019-04-27T01:03:06.119Z,9.86
2019-04-27T01:04:59.096Z,9.73
2019-04-27T01:05:59.165Z,9.80
2019-04-27T01:07:53.706Z,9.76
2019-04-27T01:08:53.115Z,9.74
2019-04-27T01:10:45.206Z,9.61
2019-04-27T01:11:45.240Z,9.62
2019-04-27T01:13:38.224Z,9.50
2019-04-27T01:14:38.283Z,9.55
2019-04-27T01:16:31.286Z,9.62
2019-04-27T01:17:31.326Z,9.54
2019-04-27T01:19:24.307Z,9.50
2019-04-27T01:20:24.365Z,9.54
2019-04-27T01:22:18.875Z,9.37
2019-04-27T01:23:17.403Z,9.40
2019-04-27T01:25:10.383Z,9.31
2019-04-27T01:26:10.442Z,9.39
2019-04-27T01:28:03.444Z,9.31
2019-04-27T01:29:03.481Z,9.22
2019-04-27T01:30:56.498Z,9.21
2019-04-27T01:31:56.542Z,9.21
2019-04-27T01:33:49.536Z,9.18
2019-04-27T01:34:49.584Z,9.25
2019-04-27T01:36:42.567Z,9.21
2019-04-27T01:37:42.619Z,9.23
2019-04-27T01:39:35.621Z,9.22
2019-04-27T01:40:35.659Z,9.29
2019-04-27T01:42:29.490Z,9.22
2019-04-27T01:43:30.187Z,9.25
2019-04-27T01:45:21.730Z,9.26
2019-04-27T01:46:21.762Z,9.26
2019-04-27T01:48:22.922Z,9.23
2019-04-27T01:49:14.807Z,9.23
2019-04-27T01:51:09.307Z,9.18
2019-04-27T01:52:09.469Z,9.19
2019-04-27T01:54:00.853Z,9.36
2019-04-27T01:55:00.878Z,9.40
2019-04-27T01:56:53.860Z,9.41
2019-04-27T01:57:53.914Z,9.47
2019-04-27T01:59:46.903Z,9.39
2019-04-27T02:00:46.949Z,9.40
2019-04-27T02:02:39.950Z,9.46
2019-04-27T02:03:39.987Z,9.44
2019-04-27T02:05:32.972Z,9.41
2019-04-27T02:06:33.029Z,9.47
2019-04-27T02:08:26.032Z,9.43
2019-04-27T02:09:26.063Z,9.47
2019-04-27T02:11:19.042Z,9.54
2019-04-27T02:12:19.326Z,9.39
2019-04-27T02:14:12.098Z,9.47
2019-04-27T02:15:12.140Z,9.46
2019-04-27T02:17:05.146Z,9.59
2019-04-27T02:18:05.176Z,9.54
2019-04-27T02:19:59.502Z,9.55
2019-04-27T02:20:59.163Z,9.51
2019-04-27T02:22:51.213Z,9.50
2019-04-27T02:23:51.247Z,9.58
2019-04-27T02:25:44.244Z,9.51
2019-04-27T02:26:44.282Z,9.56
2019-04-27T02:28:37.263Z,9.48
2019-04-27T02:29:38.957Z,9.54
2019-04-27T02:31:30.344Z,9.50
2019-04-27T02:32:30.384Z,9.50
2019-04-27T02:34:23.359Z,9.58
2019-04-27T02:35:23.413Z,9.48
2019-04-27T02:37:16.418Z,9.39
2019-04-27T02:38:16.454Z,9.48
2019-04-27T02:40:10.110Z,9.41
2019-04-27T02:41:10.002Z,9.40
2019-04-27T02:43:02.509Z,9.41
2019-04-27T02:44:02.563Z,9.39
2019-04-27T02:45:55.520Z,9.37
2019-04-27T02:46:55.576Z,9.37
2019-04-27T02:48:56.597Z,9.40
2019-04-27T02:49:50.825Z,9.51
2019-04-27T02:51:43.008Z,9.55
2019-04-27T02:52:41.648Z,9.56
2019-04-27T02:54:34.628Z,9.51
2019-04-27T02:55:34.686Z,9.55
2019-04-27T02:57:29.738Z,9.55
2019-04-27T02:58:27.726Z,9.54
2019-04-27T03:00:20.741Z,9.54
2019-04-27T03:01:20.758Z,9.58
2019-04-27T03:03:13.757Z,9.37
2019-04-27T03:04:13.798Z,9.41
2019-04-27T03:06:06.777Z,9.46
2019-04-27T03:07:06.841Z,9.39
2019-04-27T03:09:00.625Z,9.36
2019-04-27T03:10:02.218Z,9.43
2019-04-27T03:11:52.869Z,9.37
2019-04-27T03:12:52.910Z,9.22
2019-04-27T03:14:45.907Z,9.28
2019-04-27T03:15:45.951Z,9.25
2019-04-27T03:17:39.585Z,9.21
2019-04-27T03:18:40.368Z,9.22
2019-04-27T03:20:31.984Z,9.26
2019-04-27T03:21:32.024Z,9.26
2019-04-27T03:23:25.005Z,9.28
2019-04-27T03:24:25.068Z,9.25
2019-04-27T03:26:19.621Z,9.36
2019-04-27T03:27:20.098Z,9.34
2019-04-27T03:29:11.093Z,9.31
2019-04-27T03:30:12.494Z,9.40
2019-04-27T03:32:04.117Z,9.31
2019-04-27T03:33:04.188Z,9.34
2019-04-27T03:34:57.170Z,9.40
2019-04-27T03:35:57.209Z,9.32
2019-04-27T03:37:50.271Z,9.29
2019-04-27T03:38:50.252Z,9.25
2019-04-27T03:40:43.252Z,9.22
2019-04-27T03:41:43.294Z,9.28
2019-04-27T03:43:36.290Z,9.29
2019-04-27T03:44:36.334Z,9.31
2019-04-27T03:46:30.236Z,9.31
2019-04-27T03:47:30.580Z,9.32
2019-04-27T03:49:35.152Z,9.25
2019-04-27T03:50:22.407Z,9.31
2019-04-27T03:52:15.383Z,9.29
2019-04-27T03:53:15.442Z,9.26
2019-04-27T03:55:10.341Z,9.37
2019-04-27T03:56:10.145Z,9.40
2019-04-27T03:58:01.482Z,9.29
2019-04-27T03:59:01.519Z,9.25
2019-04-27T04:00:54.518Z,9.34
2019-04-27T04:01:54.570Z,9.39
2019-04-27T04:03:49.711Z,9.36
2019-04-27T04:04:50.503Z,9.36
2019-04-27T04:06:40.708Z,9.25
2019-04-27T04:07:40.662Z,9.31
2019-04-27T04:09:33.629Z,9.25
2019-04-27T04:10:33.693Z,9.18
2019-04-27T04:12:26.690Z,9.19
2019-04-27T04:13:29.416Z,9.22
2019-04-27T04:15:20.070Z,9.19
2019-04-27T04:16:20.404Z,9.22
2019-04-27T04:18:12.770Z,9.19
2019-04-27T04:19:12.803Z,9.25
2019-04-27T04:21:05.794Z,9.19
2019-04-27T04:22:05.836Z,9.21
2019-04-27T04:24:00.976Z,9.25
2019-04-27T04:24:59.831Z,9.29
2019-04-27T04:26:51.867Z,9.22
2019-04-27T04:27:51.918Z,9.26
2019-04-27T04:29:44.913Z,9.22
2019-04-27T04:30:44.964Z,9.21
2019-04-27T04:32:39.519Z,9.22
2019-04-27T04:33:40.187Z,9.36
2019-04-27T04:35:33.351Z,9.28
2019-04-27T04:36:31.030Z,9.34
2019-04-27T04:38:24.016Z,9.39
2019-04-27T04:39:24.074Z,9.36
2019-04-27T04:41:17.075Z,9.40
2019-04-27T04:42:19.563Z,9.54
2019-04-27T04:44:12.514Z,9.51
2019-04-27T04:45:10.725Z,9.56
2019-04-27T04:47:03.664Z,9.61
2019-04-27T04:48:03.704Z,9.55
2019-04-27T04:50:10.367Z,9.64
2019-04-27T04:50:56.738Z,9.72
2019-04-27T04:52:50.070Z,9.77
2019-04-27T04:53:51.920Z,9.74
2019-04-27T04:55:42.771Z,9.89
2019-04-27T04:56:42.865Z,9.83
2019-04-27T04:58:35.792Z,9.98
2019-04-27T04:59:35.853Z,10.07
2019-04-27T05:01:29.988Z,10.16
2019-04-27T05:02:29.417Z,10.12
2019-04-27T05:04:21.878Z,10.28
2019-04-27T05:05:21.935Z,10.16
2019-04-27T05:07:14.940Z,10.26
2019-04-27T05:08:14.973Z,10.30
2019-04-27T05:10:09.050Z,10.40
2019-04-27T05:11:09.644Z,10.33
2019-04-27T05:13:01.008Z,10.46
2019-04-27T05:14:01.564Z,10.53
2019-04-27T05:15:54.056Z,10.53
2019-04-27T05:16:54.168Z,10.56
2019-04-27T05:18:47.077Z,10.64
2019-04-27T05:19:48.997Z,10.67
2019-04-27T05:21:40.178Z,10.84
2019-04-27T05:22:40.245Z,10.81
2019-04-27T05:24:33.151Z,10.89
2019-04-27T05:25:33.210Z,10.99
2019-04-27T05:27:26.205Z,11.08
2019-04-27T05:28:26.244Z,11.26
2019-04-27T05:30:19.649Z,11.26
2019-04-27T05:31:19.554Z,11.27
2019-04-27T05:33:12.283Z,11.37
2019-04-27T05:34:12.329Z,11.50
2019-04-27T05:36:05.330Z,11.59
2019-04-27T05:37:05.365Z,11.52
2019-04-27T05:38:59.778Z,11.66
2019-04-27T05:39:58.927Z,11.72
2019-04-27T05:41:51.394Z,11.73
2019-04-27T05:42:55.249Z,11.77
2019-04-27T05:44:45.647Z,11.94
2019-04-27T05:45:44.479Z,11.91
2019-04-27T05:47:39.264Z,12.04
2019-04-27T05:48:38.908Z,12.20
2019-04-27T05:50:38.777Z,12.50
2019-04-27T05:51:37.251Z,12.50
2019-04-27T05:53:24.056Z,12.62
2019-04-27T05:54:24.104Z,12.55
2019-04-27T05:56:17.083Z,12.40
2019-04-27T05:57:17.142Z,12.36
2019-04-27T05:59:10.163Z,12.22
2019-04-27T06:00:10.207Z,12.29
2019-04-27T06:02:03.208Z,12.40
2019-04-27T06:03:03.244Z,12.55
2019-04-27T06:04:56.246Z,12.47
2019-04-27T06:05:56.286Z,12.67
2019-04-27T06:07:49.296Z,12.70
2019-04-27T06:08:49.558Z,12.86
2019-04-27T06:10:42.332Z,12.97
2019-04-27T06:11:42.362Z,12.90
2019-04-27T06:13:35.342Z,12.86
2019-04-27T06:14:35.403Z,12.91
2019-04-27T06:16:29.483Z,12.79
2019-04-27T06:17:29.842Z,12.76
2019-04-27T06:19:21.422Z,12.86
2019-04-27T06:20:21.484Z,12.82
2019-04-27T06:22:14.504Z,12.75
2019-04-27T06:23:14.526Z,12.76
2019-04-27T06:25:11.372Z,12.67
2019-04-27T06:26:09.201Z,12.65
2019-04-27T06:28:00.578Z,12.79
2019-04-27T06:29:00.603Z,12.80
2019-04-27T06:30:53.623Z,12.72
2019-04-27T06:31:53.655Z,12.76
2019-04-27T06:33:46.631Z,12.68
2019-04-27T06:34:48.810Z,12.64
2019-04-27T06:36:39.709Z,12.67
2019-04-27T06:37:39.730Z,12.68
2019-04-27T06:39:32.715Z,12.54
2019-04-27T06:40:35.349Z,12.54
2019-04-27T06:42:25.770Z,12.49
2019-04-27T06:43:25.805Z,12.53
2019-04-27T06:45:19.710Z,12.42
2019-04-27T06:46:19.996Z,12.53
2019-04-27T06:48:11.851Z,12.57
2019-04-27T06:49:11.908Z,12.39
2019-04-27T06:51:05.691Z,12.43
2019-04-27T06:52:04.947Z,12.45
2019-04-27T06:53:59.447Z,12.47
2019-04-27T06:54:57.997Z,12.43
2019-04-27T06:56:50.999Z,12.57
2019-04-27T06:57:51.024Z,12.50
2019-04-27T06:59:44.005Z,12.50
2019-04-27T07:00:44.063Z,12.61
2019-04-27T07:02:37.078Z,12.68
2019-04-27T07:03:37.102Z,12.73
2019-04-27T07:05:30.091Z,12.72
2019-04-27T07:06:30.143Z,12.75
2019-04-27T07:08:23.167Z,12.86
2019-04-27T07:09:23.183Z,12.90
2019-04-27T07:11:16.191Z,12.87
2019-04-27T07:12:16.220Z,12.83
2019-04-27T07:14:11.418Z,12.93
2019-04-27T07:15:09.264Z,12.93
2019-04-27T07:17:02.244Z,12.95
2019-04-27T07:18:02.302Z,12.94
2019-04-27T07:19:55.343Z,12.94
2019-04-27T07:20:55.368Z,12.95
2019-04-27T07:22:49.634Z,12.98
2019-04-27T07:23:48.820Z,12.98
2019-04-27T07:25:41.415Z,13.08
2019-04-27T07:26:41.447Z,13.16
2019-04-27T07:28:34.428Z,13.28
2019-04-27T07:29:34.486Z,13.31
2019-04-27T07:31:29.527Z,13.18
2019-04-27T07:32:29.177Z,13.05
2019-04-27T07:34:20.559Z,13.03
2019-04-27T07:35:20.608Z,12.98
2019-04-27T07:37:13.594Z,12.90
2019-04-27T07:38:13.615Z,12.82
2019-04-27T07:40:06.598Z,12.83
2019-04-27T07:41:06.658Z,12.90
2019-04-27T07:42:59.664Z,12.87
2019-04-27T07:43:59.702Z,12.87
2019-04-27T07:45:52.681Z,12.73
2019-04-27T07:46:52.744Z,12.73
2019-04-27T07:48:45.748Z,12.62
2019-04-27T07:49:45.806Z,12.64
2019-04-27T07:51:39.341Z,12.75
2019-04-27T07:52:40.546Z,12.75
2019-04-27T07:54:31.798Z,12.62
2019-04-27T07:55:31.859Z,12.68
2019-04-27T07:57:24.874Z,12.65
2019-04-27T07:58:24.909Z,12.65
2019-04-27T08:00:19.085Z,12.49
2019-04-27T08:01:19.280Z,12.54
2019-04-27T08:03:10.958Z,12.55
2019-04-27T08:04:10.996Z,12.54
2019-04-27T08:06:04.000Z,12.42
2019-04-27T08:07:04.037Z,12.39
2019-04-27T08:08:57.020Z,12.39
2019-04-27T08:09:57.078Z,12.42
2019-04-27T08:11:50.089Z,12.45
2019-04-27T08:12:50.118Z,12.43
2019-04-27T08:14:43.115Z,12.31
2019-04-27T08:15:43.156Z,12.21
2019-04-27T08:17:36.158Z,12.12
2019-04-27T08:18:36.201Z,12.12
2019-04-27T08:20:29.694Z,12.24
2019-04-27T08:21:29.747Z,12.25
2019-04-27T08:23:22.757Z,12.24
2019-04-27T08:24:22.802Z,12.17
2019-04-27T08:26:15.803Z,12.32
2019-04-27T08:27:15.841Z,12.28
2019-04-27T08:29:08.820Z,12.28
2019-04-27T08:30:09.461Z,12.28
2019-04-27T08:32:01.890Z,12.45
2019-04-27T08:33:01.920Z,12.42
2019-04-27T08:34:54.900Z,12.49
2019-04-27T08:35:54.964Z,12.57
2019-04-27T08:37:49.486Z,12.49
2019-04-27T08:38:48.943Z,12.40
2019-04-27T08:40:40.994Z,12.45
2019-04-27T08:41:41.032Z,12.28
2019-04-27T08:43:34.039Z,12.37
2019-04-27T08:44:34.070Z,12.43
2019-04-27T08:46:28.582Z,12.37
2019-04-27T08:47:27.110Z,12.45
2019-04-27T08:49:20.124Z,12.54
2019-04-27T08:50:20.165Z,12.46
2019-04-27T08:52:13.170Z,12.65
2019-04-27T08:53:13.206Z,12.65
2019-04-27T08:55:06.194Z,12.67
2019-04-27T08:56:06.254Z,12.75
2019-04-27T08:57:59.267Z,12.61
2019-04-27T08:58:59.538Z,12.64
2019-04-27T09:00:52.341Z,12.62
2019-04-27T09:01:52.388Z,12.75
2019-04-27T09:03:45.395Z,12.85
2019-04-27T09:04:45.433Z,12.75
2019-04-27T09:06:39.887Z,12.87
2019-04-27T09:07:39.776Z,12.90
2019-04-27T09:09:31.480Z,12.93
2019-04-27T09:10:31.523Z,12.79
2019-04-27T09:12:25.024Z,12.83
2019-04-27T09:13:25.069Z,12.91
2019-04-27T09:15:19.227Z,12.93
2019-04-27T09:16:18.684Z,12.85
2019-04-27T09:18:11.616Z,12.82
2019-04-27T09:19:11.657Z,12.86
2019-04-27T09:21:04.650Z,12.93
2019-04-27T09:22:15.266Z,12.85
2019-04-27T09:23:59.293Z,12.79
2019-04-27T09:24:59.386Z,12.90
2019-04-27T09:26:50.751Z,12.87
2019-04-27T09:27:50.783Z,12.94
2019-04-27T09:29:43.774Z,12.93
2019-04-27T09:30:43.826Z,13.04
2019-04-27T09:32:38.434Z,13.05
2019-04-27T09:33:36.875Z,12.97
2019-04-27T09:35:29.847Z,13.11
2019-04-27T09:36:29.910Z,13.03
2019-04-27T09:38:22.912Z,12.94
2019-04-27T09:39:22.949Z,12.94
2019-04-27T09:41:16.968Z,12.90
2019-04-27T09:42:16.748Z,12.94
2019-04-27T09:44:08.998Z,12.91
2019-04-27T09:45:09.039Z,13.01
2019-04-27T09:47:02.011Z,12.87
2019-04-27T09:48:02.070Z,12.82
2019-04-27T09:49:56.552Z,12.76
2019-04-27T09:50:55.940Z,12.75
2019-04-27T09:52:48.129Z,12.57
2019-04-27T09:53:48.191Z,12.60
2019-04-27T09:55:41.148Z,12.62
2019-04-27T09:56:41.205Z,12.54
2019-04-27T09:58:34.211Z,12.39
2019-04-27T09:59:34.251Z,12.57
2019-04-27T10:01:28.903Z,12.50
2019-04-27T10:02:27.292Z,12.50
2019-04-27T10:04:31.918Z,12.45
2019-04-27T10:05:31.950Z,12.37
2019-04-27T10:07:26.693Z,12.35
2019-04-27T10:08:26.178Z,12.37
2019-04-27T10:10:17.988Z,12.39
2019-04-27T10:11:18.029Z,12.43
2019-04-27T10:13:11.011Z,12.47
2019-04-27T10:14:11.069Z,12.49
2019-04-27T10:16:04.070Z,12.50
2019-04-27T10:17:04.110Z,12.53
2019-04-27T10:18:57.111Z,12.67
2019-04-27T10:19:57.153Z,12.55
2019-04-27T10:21:50.132Z,12.64
2019-04-27T10:22:50.260Z,12.61
2019-04-27T10:24:43.192Z,12.67
2019-04-27T10:25:43.237Z,12.75
2019-04-27T10:27:36.212Z,12.65
2019-04-27T10:28:37.293Z,12.62
2019-04-27T10:30:29.276Z,12.70
2019-04-27T10:31:29.307Z,12.67
2019-04-27T10:33:22.305Z,12.72
2019-04-27T10:34:22.368Z,12.80
2019-04-27T10:36:15.367Z,12.90
2019-04-27T10:37:16.072Z,12.93
2019-04-27T10:39:08.405Z,13.04
2019-04-27T10:40:08.445Z,13.15
2019-04-27T10:42:01.445Z,13.00
2019-04-27T10:43:01.486Z,12.86
2019-04-27T10:44:56.004Z,12.75
2019-04-27T10:45:56.357Z,12.75
2019-04-27T10:47:49.527Z,12.75
2019-04-27T10:48:47.582Z,12.87
2019-04-27T10:50:40.584Z,12.98
2019-04-27T10:51:40.626Z,12.94
2019-04-27T10:53:33.609Z,12.93
2019-04-27T10:54:33.667Z,12.79
2019-04-27T10:56:27.354Z,12.42
2019-04-27T10:57:26.717Z,12.25
2019-04-27T10:59:19.698Z,12.04
2019-04-27T11:00:19.764Z,12.03
2019-04-27T11:02:12.759Z,12.06
2019-04-27T11:03:12.794Z,12.02
2019-04-27T11:05:06.828Z,12.10
2019-04-27T11:06:06.341Z,12.06
2019-04-27T11:07:59.346Z,12.17
2019-04-27T11:08:59.400Z,12.07
2019-04-27T11:10:52.367Z,12.07
2019-04-27T11:11:52.423Z,12.15
2019-04-27T11:13:46.367Z,11.97
2019-04-27T11:14:45.461Z,11.94
2019-04-27T11:16:38.474Z,12.02
2019-04-27T11:17:38.514Z,11.99
2019-04-27T11:19:31.483Z,12.12
2019-04-27T11:20:31.542Z,12.22
2019-04-27T11:22:26.050Z,12.36
2019-04-27T11:23:26.092Z,12.40
2019-04-27T11:25:17.568Z,12.55
2019-04-27T11:26:17.625Z,12.72
2019-04-27T11:28:10.624Z,12.83
2019-04-27T11:29:10.668Z,13.08
2019-04-27T11:31:03.666Z,13.28
2019-04-27T11:32:03.704Z,13.37
2019-04-27T11:33:56.751Z,13.46
2019-04-27T11:34:56.751Z,13.41
2019-04-27T11:36:49.735Z,13.42
2019-04-27T11:37:49.785Z,13.42
2019-04-27T11:39:42.768Z,13.42
2019-04-27T11:40:42.825Z,13.38
2019-04-27T11:42:35.826Z,13.42
2019-04-27T11:43:36.218Z,13.42
2019-04-27T11:45:28.876Z,13.09
2019-04-27T11:46:28.911Z,12.91
2019-04-27T11:48:21.924Z,12.54
2019-04-27T11:49:21.963Z,12.28
2019-04-27T11:51:17.190Z,12.22
2019-04-27T11:52:15.724Z,12.29
2019-04-27T11:54:08.027Z,12.40
2019-04-27T11:55:08.061Z,12.49
2019-04-27T11:57:01.045Z,12.45
2019-04-27T11:58:01.102Z,12.36
2019-04-27T11:59:54.140Z,12.07
2019-04-27T12:00:54.164Z,12.13
2019-04-27T12:02:47.174Z,12.18
2019-04-27T12:03:47.204Z,12.06
2019-04-27T12:05:40.201Z,12.25
2019-04-27T12:06:40.260Z,12.43
2019-04-27T12:08:33.252Z,12.61
2019-04-27T12:09:33.302Z,12.75
2019-04-27T12:11:26.289Z,12.93
2019-04-27T12:12:26.349Z,12.85
2019-04-27T12:14:19.350Z,12.73
2019-04-27T12:15:19.390Z,12.75
2019-04-27T12:17:12.393Z,12.70
2019-04-27T12:18:12.434Z,12.75
2019-04-27T12:20:05.504Z,12.97
2019-04-27T12:21:06.155Z,12.95
2019-04-27T12:22:58.458Z,12.98
2019-04-27T12:23:58.517Z,13.15
2019-04-27T12:25:51.530Z,13.09
2019-04-27T12:26:51.562Z,13.15
2019-04-27T12:28:45.945Z,12.93
2019-04-27T12:29:45.387Z,12.93
2019-04-27T12:31:37.604Z,12.87
2019-04-27T12:32:37.644Z,12.79
2019-04-27T12:34:30.626Z,12.65
2019-04-27T12:35:30.686Z,12.60
2019-04-27T12:37:23.686Z,12.50
2019-04-27T12:38:23.725Z,12.75
2019-04-27T12:40:16.779Z,12.85
2019-04-27T12:41:16.768Z,12.70
2019-04-27T12:43:09.777Z,12.82
2019-04-27T12:44:09.813Z,12.83
2019-04-27T12:46:02.793Z,12.73
2019-04-27T12:47:02.893Z,12.65
2019-04-27T12:48:57.240Z,12.82
2019-04-27T12:49:57.693Z,12.91
2019-04-27T12:51:48.880Z,13.04
2019-04-27T12:52:48.940Z,13.15
2019-04-27T12:54:41.949Z,13.42
2019-04-27T12:55:41.991Z,13.49
2019-04-27T12:57:36.412Z,13.18
2019-04-27T12:58:36.543Z,13.25
2019-04-27T13:00:28.081Z,13.19
2019-04-27T13:01:28.083Z,13.13
2019-04-27T13:03:21.070Z,13.12
2019-04-27T13:04:21.129Z,13.20
2019-04-27T13:06:14.140Z,13.27
2019-04-27T13:07:15.911Z,13.22
2019-04-27T13:09:07.249Z,13.25
2019-04-27T13:10:07.230Z,13.38
2019-04-27T13:12:00.209Z,13.54
2019-04-27T13:13:00.276Z,13.67
2019-04-27T13:14:53.277Z,13.70
2019-04-27T13:15:53.309Z,13.75
2019-04-27T13:17:46.299Z,13.96
2019-04-27T13:18:46.355Z,13.99
2019-04-27T13:20:39.362Z,13.90
2019-04-27T13:21:39.412Z,13.99
2019-04-27T13:23:32.411Z,13.78
2019-04-27T13:24:32.447Z,13.87
2019-04-27T13:26:25.448Z,14.07
2019-04-27T13:27:26.952Z,14.05
2019-04-27T13:29:18.501Z,14.32
2019-04-27T13:30:18.542Z,14.36
2019-04-27T13:32:11.527Z,14.63
2019-04-27T13:33:11.588Z,14.44
2019-04-27T13:35:05.758Z,14.00
2019-04-27T13:36:07.304Z,13.95
2019-04-27T13:37:57.652Z,14.10
2019-04-27T13:38:57.679Z,14.00
2019-04-27T13:40:50.686Z,14.10
2019-04-27T13:41:50.726Z,13.97
2019-04-27T13:43:43.713Z,13.83
2019-04-27T13:44:45.545Z,13.99
2019-04-27T13:46:36.792Z,14.20
2019-04-27T13:47:36.825Z,14.28
2019-04-27T13:49:29.807Z,14.54
2019-04-27T13:50:29.874Z,14.70
2019-04-27T13:52:22.875Z,14.47
2019-04-27T13:53:22.913Z,14.50
2019-04-27T13:55:16.013Z,14.22
2019-04-27T13:56:17.371Z,14.26
2019-04-27T13:58:08.966Z,14.47
2019-04-27T13:59:10.739Z,14.43
2019-04-27T14:01:01.987Z,14.29
2019-04-27T14:02:02.047Z,14.18
2019-04-27T14:03:55.071Z,14.07
2019-04-27T14:04:55.112Z,14.07
2019-04-27T14:06:49.190Z,14.12
2019-04-27T14:07:49.415Z,14.14
2019-04-27T14:09:41.145Z,14.30
2019-04-27T14:10:41.199Z,14.36
2019-04-27T14:12:34.218Z,14.30
2019-04-27T14:13:34.253Z,14.26
2019-04-27T14:15:28.836Z,14.40
2019-04-27T14:16:29.001Z,14.41
2019-04-27T14:18:20.302Z,14.43
2019-04-27T14:19:20.356Z,14.18
2019-04-27T14:21:13.349Z,13.97
2019-04-27T14:22:13.399Z,13.90
2019-04-27T14:24:06.402Z,13.96
2019-04-27T14:25:08.457Z,13.95
2019-04-27T14:26:59.472Z,14.05
2019-04-27T14:27:59.487Z,14.26
2019-04-27T14:29:52.495Z,14.63
2019-04-27T14:30:52.536Z,14.72
2019-04-27T14:32:45.538Z,14.82
2019-04-27T14:33:45.623Z,14.84
2019-04-27T14:35:38.601Z,14.97
2019-04-27T14:36:40.564Z,15.07
2019-04-27T14:38:31.622Z,14.94
2019-04-27T14:39:31.682Z,14.85
2019-04-27T14:41:24.678Z,14.79
2019-04-27T14:42:24.726Z,14.91
2019-04-27T14:44:18.718Z,14.65
2019-04-27T14:45:18.908Z,14.70
2019-04-27T14:47:10.770Z,14.62
2019-04-27T14:48:12.808Z,14.62
2019-04-27T14:50:03.800Z,14.81
2019-04-27T14:51:03.859Z,14.94
2019-04-27T14:52:58.891Z,14.97
2019-04-27T14:53:58.810Z,15.24
2019-04-27T14:55:49.918Z,15.47
2019-04-27T14:56:49.979Z,15.40
2019-04-27T14:58:42.969Z,15.57
2019-04-27T14:59:43.007Z,15.59
2019-04-27T15:01:37.597Z,15.58
2019-04-27T15:02:36.069Z,15.52
2019-04-27T15:04:31.256Z,15.29
2019-04-27T15:05:29.114Z,15.09
2019-04-27T15:07:22.100Z,15.06
2019-04-27T15:08:22.153Z,15.03
2019-04-27T15:10:16.194Z,14.86
2019-04-27T15:11:19.197Z,14.69
2019-04-27T15:13:08.446Z,14.68
2019-04-27T15:14:09.093Z,14.48
2019-04-27T15:16:02.634Z,14.30
2019-04-27T15:17:01.566Z,14.25
2019-04-27T15:18:54.309Z,14.17
2019-04-27T15:19:54.380Z,14.30
2019-04-27T15:21:56.498Z,14.29
2019-04-27T15:22:50.793Z,14.17
2019-04-27T15:24:41.659Z,14.20
2019-04-27T15:25:45.522Z,14.05
2019-04-27T15:27:37.663Z,13.99
2019-04-27T15:28:33.488Z,13.74
2019-04-27T15:30:26.507Z,12.75
2019-04-27T15:31:27.242Z,12.09
2019-04-27T15:33:19.528Z,11.41
2019-04-27T15:34:19.590Z,11.05
2019-04-27T15:36:14.513Z,10.72
2019-04-27T15:37:12.627Z,10.54
2019-04-27T15:39:05.618Z,10.46
2019-04-27T15:40:10.039Z,10.44
2019-04-27T15:42:01.930Z,10.40
2019-04-27T15:42:58.713Z,10.53
2019-04-27T15:44:51.733Z,10.51
2019-04-27T15:45:53.423Z,10.51
2019-04-27T15:47:47.694Z,10.46
2019-04-27T15:48:44.817Z,10.49
2019-04-27T15:50:38.741Z,10.53
2019-04-27T15:51:38.291Z,10.60
2019-04-27T15:53:30.837Z,10.64
2019-04-27T15:54:32.317Z,10.57
2019-04-27T15:56:23.902Z,10.64
2019-04-27T15:57:23.944Z,10.68
2019-04-27T15:59:18.446Z,10.60
2019-04-27T16:00:20.459Z,10.60
2019-04-27T16:02:15.223Z,10.74
2019-04-27T16:03:10.033Z,10.81
2019-04-27T16:05:05.538Z,10.87
2019-04-27T16:06:08.118Z,10.96
2019-04-27T16:08:05.253Z,10.89
2019-04-27T16:08:59.071Z,10.96
2019-04-27T16:10:51.641Z,11.02
2019-04-27T16:11:58.336Z,11.15
2019-04-27T16:13:44.657Z,11.22
2019-04-27T16:14:44.710Z,11.19
2019-04-27T16:16:38.214Z,11.23
2019-04-27T16:17:42.394Z,11.26
2019-04-27T16:19:30.752Z,11.22
2019-04-27T16:20:33.915Z,11.29
2019-04-27T16:22:26.831Z,11.32
2019-04-27T16:23:23.836Z,11.30
2019-04-27T16:25:18.532Z,11.45
2019-04-27T16:26:18.307Z,11.50
2019-04-27T16:28:13.377Z,11.37
2019-04-27T16:29:09.918Z,11.41
2019-04-27T16:31:02.928Z,11.32
2019-04-27T16:32:07.207Z,11.33
2019-04-27T16:33:59.116Z,11.30
2019-04-27T16:34:56.001Z,11.41
2019-04-27T16:36:48.999Z,11.32
2019-04-27T16:37:52.070Z,11.30
2019-04-27T16:39:45.702Z,11.29
2019-04-27T16:40:42.081Z,11.19
2019-04-27T16:42:35.059Z,11.23
2019-04-27T16:43:35.120Z,11.27
2019-04-27T16:45:28.180Z,11.17
2019-04-27T16:46:28.504Z,11.14
2019-04-27T16:48:21.137Z,11.22
2019-04-27T16:49:21.198Z,11.11
2019-04-27T16:51:14.216Z,11.05
2019-04-27T16:52:16.009Z,11.10
2019-04-27T16:54:13.015Z,11.04
2019-04-27T16:55:08.620Z,11.04
2019-04-27T16:57:05.219Z,11.12
2019-04-27T16:58:00.330Z,11.02
2019-04-27T16:59:57.587Z,11.12
2019-04-27T17:00:53.371Z,11.05
2019-04-27T17:02:46.369Z,11.00
2019-04-27T17:03:48.335Z,11.10
2019-04-27T17:05:39.424Z,11.02
2019-04-27T17:06:46.001Z,11.11
2019-04-27T17:08:32.442Z,11.04
2019-04-27T17:09:36.472Z,10.96
2019-04-27T17:11:25.505Z,10.89
2019-04-27T17:12:29.925Z,10.99
2019-04-27T17:14:20.563Z,10.99
2019-04-27T17:15:18.987Z,11.05
2019-04-27T17:17:12.071Z,11.07
2019-04-27T17:18:11.645Z,11.27
2019-04-27T17:20:04.635Z,11.32
2019-04-27T17:21:16.108Z,11.37
2019-04-27T17:22:58.310Z,11.32
2019-04-27T17:24:02.871Z,11.41
2019-04-27T17:25:52.914Z,11.30
2019-04-27T17:26:50.771Z,11.40
2019-04-27T17:28:43.822Z,11.40
2019-04-27T17:29:43.813Z,11.47
2019-04-27T17:31:38.101Z,11.54
2019-04-27T17:32:38.862Z,11.40
2019-04-27T17:34:29.858Z,11.47
2019-04-27T17:35:29.892Z,11.50
2019-04-27T17:37:25.218Z,11.50
2019-04-27T17:38:22.934Z,11.48
2019-04-27T17:40:15.943Z,11.55
2019-04-27T17:41:15.968Z,11.55
2019-04-27T17:43:10.480Z,11.54
2019-04-27T17:44:12.756Z,11.54
2019-04-27T17:46:02.011Z,11.52
2019-04-27T17:47:02.049Z,11.54
2019-04-27T17:48:55.037Z,11.54
2019-04-27T17:49:55.091Z,11.45
2019-04-27T17:51:48.416Z,11.47
2019-04-27T17:52:54.690Z,11.48
2019-04-27T17:54:47.389Z,11.40
2019-04-27T17:55:41.180Z,11.45
2019-04-27T17:57:34.195Z,11.45
2019-04-27T17:58:35.464Z,11.40
2019-04-27T18:00:28.114Z,11.35
2019-04-27T18:01:30.123Z,11.22
2019-04-27T18:03:21.172Z,11.26
2019-04-27T18:04:20.312Z,11.25
2019-04-27T18:06:13.283Z,11.15
2019-04-27T18:07:13.365Z,11.14
2019-04-27T18:09:08.152Z,11.04
2019-04-27T18:10:06.384Z,11.08
2019-04-27T18:11:59.362Z,11.00
2019-04-27T18:12:59.510Z,10.96
2019-04-27T18:14:52.422Z,10.96
2019-04-27T18:15:54.156Z,10.86
2019-04-27T18:17:51.350Z,10.87
2019-04-27T18:18:45.504Z,10.82
2019-04-27T18:20:38.495Z,10.76
2019-04-27T18:21:38.681Z,10.79
2019-04-27T18:23:31.554Z,10.68
2019-04-27T18:24:31.589Z,10.63
2019-04-27T18:26:24.599Z,10.60
2019-04-27T18:27:24.630Z,10.51
2019-04-27T18:29:18.472Z,10.54
2019-04-27T18:30:19.037Z,10.54
2019-04-27T18:32:10.650Z,10.49
2019-04-27T18:33:10.707Z,10.37
2019-04-27T18:35:03.719Z,10.49
2019-04-27T18:36:06.676Z,10.41
2019-04-27T18:37:58.390Z,10.37
2019-04-27T18:38:58.617Z,10.44
2019-04-27T18:40:49.783Z,10.38
2019-04-27T18:41:54.109Z,10.46
2019-04-27T18:43:50.599Z,10.53